createdAt,value
2022-12-25T00:02:21.541Z,96608.76
2022-12-25T00:04:51.706Z,96615.25
2022-12-25T00:07:22.152Z,96612.83
2022-12-25T00:09:52.252Z,96614.92
2022-12-25T00:12:22.984Z,96616.45
2022-12-25T00:14:54.471Z,96623.50
2022-12-25T00:17:24.739Z,96621.66
2022-12-25T00:19:55.077Z,96623.83
2022-12-25T00:22:27.137Z,96631.93
2022-12-25T00:24:57.404Z,96632.36
2022-12-25T00:27:27.811Z,96638.52
2022-12-25T00:29:58.181Z,96640.69
2022-12-25T00:51:38.624Z,96658.95
2022-12-25T00:55:25.448Z,96664.79
2022-12-25T00:59:11.103Z,96670.99
2022-12-25T01:02:47.548Z,96669.11
2022-12-25T01:05:18.786Z,96667.17
2022-12-25T01:07:48.806Z,96673.66
2022-12-25T01:10:24.919Z,96675.16
2022-12-25T01:12:55.020Z,96675.05
2022-12-25T01:15:25.488Z,96672.95
2022-12-25T01:17:55.500Z,96671.98
2022-12-25T01:20:25.534Z,96672.46
2022-12-25T01:22:55.755Z,96669.60
2022-12-25T01:25:25.729Z,96669.49
2022-12-25T01:27:55.913Z,96667.11
2022-12-25T01:30:25.996Z,96665.60
2022-12-25T01:32:55.933Z,96670.14
2022-12-25T01:35:26.724Z,96667.49
2022-12-25T01:37:56.846Z,96665.86
2022-12-25T01:40:27.061Z,96667.55
2022-12-25T01:42:57.226Z,96667.80
2022-12-25T01:45:56.448Z,96667.34
2022-12-25T01:48:37.127Z,96665.28
2022-12-25T01:51:19.486Z,96667.64
2022-12-25T01:53:50.189Z,96670.83
2022-12-25T01:56:20.765Z,96669.70
2022-12-25T01:58:50.029Z,96674.51
2022-12-25T02:01:20.534Z,96678.16
2022-12-25T02:03:52.279Z,96679.81
2022-12-25T02:06:23.086Z,96679.63
2022-12-25T02:08:52.367Z,96684.27
2022-12-25T02:11:40.979Z,96683.42
2022-12-25T02:14:11.851Z,96677.02
2022-12-25T02:16:57.414Z,96678.30
2022-12-25T02:20:02.848Z,96679.20
2022-12-25T02:22:46.180Z,96682.30
2022-12-25T02:25:39.389Z,96684.65
2022-12-25T02:28:16.649Z,96680.38
2022-12-25T02:31:28.338Z,96684.14
2022-12-25T02:34:14.479Z,96685.48
2022-12-25T02:37:24.972Z,96688.36
2022-12-25T02:40:12.696Z,96686.73
2022-12-25T02:43:16.605Z,96690.91
2022-12-25T02:46:13.973Z,96699.70
2022-12-25T02:49:11.188Z,96702.17
2022-12-25T02:52:09.514Z,96704.70
2022-12-25T02:55:05.408Z,96709.38
2022-12-25T02:58:09.146Z,96703.63
2022-12-25T03:01:10.296Z,96710.71
2022-12-25T03:04:01.707Z,96709.08
2022-12-25T03:06:47.140Z,96707.79
2022-12-25T03:09:46.251Z,96716.55
2022-12-25T03:12:31.728Z,96717.33
2022-12-25T03:15:22.393Z,96715.89
2022-12-25T03:17:53.255Z,96714.92
2022-12-25T03:20:42.803Z,96718.02
2022-12-25T03:23:35.918Z,96722.23
2022-12-25T03:26:24.919Z,96725.50
2022-12-25T03:28:55.471Z,96737.63
2022-12-25T03:31:54.885Z,96740.20
2022-12-25T03:35:04.573Z,96744.93
2022-12-25T03:37:48.445Z,96750.54
2022-12-25T03:41:08.744Z,96754.00
2022-12-25T03:44:05.553Z,96755.73
2022-12-25T03:47:20.395Z,96759.02
2022-12-25T03:50:25.250Z,96760.67
2022-12-25T03:53:15.893Z,96765.03
2022-12-25T03:56:05.709Z,96767.73
2022-12-25T03:58:56.001Z,96766.05
2022-12-25T04:01:46.826Z,96767.02
2022-12-25T04:04:36.476Z,96770.42
2022-12-25T04:07:26.267Z,96768.99
2022-12-25T04:10:16.368Z,96765.74
2022-12-25T04:13:05.198Z,96760.23
2022-12-25T04:15:54.502Z,96760.52
2022-12-25T04:18:44.558Z,96766.05
2022-12-25T04:21:48.054Z,96770.41
2022-12-25T04:24:37.542Z,96777.80
2022-12-25T04:27:27.405Z,96786.30
2022-12-25T04:30:17.374Z,96793.04
2022-12-25T04:33:07.458Z,96793.35
2022-12-25T04:35:56.168Z,96795.09
2022-12-25T04:38:26.505Z,96793.73
2022-12-25T04:40:56.833Z,96795.56
2022-12-25T04:43:27.435Z,96801.01
2022-12-25T04:45:59.493Z,96801.70
2022-12-25T04:48:33.038Z,96798.54
2022-12-25T04:51:14.708Z,96802.70
2022-12-25T04:53:44.777Z,96810.80
2022-12-25T04:56:14.843Z,96819.26
2022-12-25T04:58:46.004Z,96825.05
2022-12-25T05:01:16.884Z,96822.40
2022-12-25T05:03:47.574Z,96827.63
2022-12-25T05:06:17.686Z,96821.78
2022-12-25T05:08:48.684Z,96818.73
2022-12-25T05:11:18.623Z,96818.77
2022-12-25T05:13:48.550Z,96819.55
2022-12-25T05:16:21.110Z,96820.22
2022-12-25T05:18:52.758Z,96824.78
2022-12-25T05:21:22.759Z,96828.30
2022-12-25T05:23:53.658Z,96828.45
2022-12-25T05:26:25.734Z,96830.19
2022-12-25T05:28:57.025Z,96833.52
2022-12-25T05:31:27.085Z,96833.91
2022-12-25T05:33:57.322Z,96831.61
2022-12-25T05:36:27.667Z,96833.60
2022-12-25T05:38:57.773Z,96832.42
2022-12-25T05:41:33.758Z,96832.95
2022-12-25T05:44:05.339Z,96827.09
2022-12-25T05:46:35.376Z,96833.23
2022-12-25T05:49:06.243Z,96836.11
2022-12-25T05:51:36.238Z,96839.84
2022-12-25T05:54:06.708Z,96849.84
2022-12-25T05:56:37.535Z,96852.04
2022-12-25T05:59:07.751Z,96855.13
2022-12-25T06:01:37.877Z,96863.80
2022-12-25T06:04:12.470Z,96865.91
2022-12-25T06:06:43.577Z,96866.23
2022-12-25T06:09:14.176Z,96868.38
2022-12-25T06:11:43.139Z,96871.09
2022-12-25T06:14:15.565Z,96872.50
2022-12-25T06:16:46.079Z,96875.41
2022-12-25T06:19:16.486Z,96874.52
2022-12-25T06:21:46.841Z,96881.59
2022-12-25T06:24:21.270Z,96884.23
2022-12-25T06:26:52.061Z,96890.02
2022-12-25T06:29:21.682Z,96896.23
2022-12-25T06:31:57.818Z,96899.04
2022-12-25T06:34:27.880Z,96904.40
2022-12-25T06:36:57.897Z,96911.02
2022-12-25T06:39:27.614Z,96911.19
2022-12-25T06:41:57.817Z,96909.37
2022-12-25T06:44:28.250Z,96912.11
2022-12-25T06:46:57.078Z,96918.27
2022-12-25T06:49:30.082Z,96923.92
2022-12-25T06:52:00.548Z,96926.91
2022-12-25T06:54:30.961Z,96935.08
2022-12-25T06:57:01.348Z,96938.27
2022-12-25T06:59:31.582Z,96936.06
2022-12-25T07:02:01.771Z,96940.88
2022-12-25T07:04:38.540Z,96945.77
2022-12-25T07:07:10.050Z,96950.04
2022-12-25T07:09:42.847Z,96951.36
2022-12-25T07:12:23.997Z,96955.75
2022-12-25T07:14:55.827Z,96960.55
2022-12-25T07:17:25.408Z,96963.85
2022-12-25T07:19:57.713Z,96972.34
2022-12-25T07:22:29.524Z,96973.09
2022-12-25T07:24:59.613Z,96969.23
2022-12-25T07:27:28.541Z,96971.02
2022-12-25T07:29:58.947Z,96977.81
2022-12-25T07:32:31.958Z,96982.45
2022-12-25T07:35:02.599Z,96984.59
2022-12-25T07:37:31.606Z,96982.23
2022-12-25T07:40:00.799Z,96981.50
2022-12-25T07:42:32.431Z,96983.20
2022-12-25T07:45:02.732Z,96982.94
2022-12-25T07:47:33.153Z,96986.25
2022-12-25T07:50:03.491Z,96992.56
2022-12-25T07:52:38.027Z,96991.23
2022-12-25T07:55:11.392Z,96998.56
2022-12-25T07:57:41.147Z,96998.23
2022-12-25T08:00:11.750Z,97005.32
2022-12-25T08:02:45.114Z,97003.02
2022-12-25T08:05:15.939Z,97003.25
2022-12-25T08:07:45.808Z,97000.52
2022-12-25T08:10:14.578Z,97000.08
2022-12-25T08:12:44.964Z,97007.00
2022-12-25T08:15:15.422Z,97006.85
2022-12-25T08:17:44.987Z,97012.39
2022-12-25T08:20:14.492Z,97012.36
2022-12-25T08:22:44.855Z,97009.65
2022-12-25T08:25:16.391Z,97017.44
2022-12-25T08:27:46.265Z,97025.86
2022-12-25T08:30:16.324Z,97031.80
2022-12-25T08:32:46.494Z,97028.58
2022-12-25T08:35:16.955Z,97028.16
2022-12-25T08:37:46.863Z,97028.79
2022-12-25T08:40:17.069Z,97026.59
2022-12-25T08:42:47.452Z,97026.19
2022-12-25T08:45:17.923Z,97024.69
2022-12-25T08:47:48.322Z,97033.28
2022-12-25T08:50:18.431Z,97030.14
2022-12-25T08:52:48.414Z,97036.66
2022-12-25T08:55:18.529Z,97036.04
2022-12-25T08:57:48.568Z,97036.23
2022-12-25T09:00:18.747Z,97041.84
2022-12-25T09:02:49.019Z,97040.97
2022-12-25T09:05:19.289Z,97042.63
2022-12-25T09:07:48.284Z,97040.78
2022-12-25T09:10:17.178Z,97037.77
2022-12-25T09:12:46.832Z,97040.96
2022-12-25T09:15:19.025Z,97043.71
2022-12-25T09:17:49.369Z,97053.73
2022-12-25T09:20:19.996Z,97057.85
2022-12-25T09:22:49.941Z,97055.79
2022-12-25T09:25:20.315Z,97041.84
2022-12-25T09:27:50.255Z,97030.13
2022-12-25T09:30:20.520Z,97041.73
2022-12-25T09:32:50.972Z,97051.63
2022-12-25T09:35:22.131Z,97047.17
2022-12-25T09:37:52.421Z,97043.70
2022-12-25T09:40:26.366Z,97044.02
2022-12-25T09:42:57.563Z,97045.46
2022-12-25T09:45:39.268Z,97046.74
2022-12-25T09:48:14.402Z,97052.17
2022-12-25T09:50:48.053Z,97052.62
2022-12-25T09:53:29.023Z,97055.88
2022-12-25T09:56:11.880Z,97054.41
2022-12-25T09:58:40.778Z,97057.53
2022-12-25T10:01:40.687Z,97050.39
2022-12-25T10:04:40.619Z,97044.75
2022-12-25T10:07:29.991Z,97043.02
2022-12-25T10:10:43.269Z,97038.80
2022-12-25T10:13:47.227Z,97032.84
2022-12-25T10:16:26.649Z,97030.66
2022-12-25T10:19:27.805Z,97034.94
2022-12-25T10:22:05.027Z,97043.05
2022-12-25T10:24:50.769Z,97036.72
2022-12-25T10:27:25.966Z,97039.44
2022-12-25T10:29:55.988Z,97038.55
2022-12-25T10:32:25.380Z,97041.84
2022-12-25T10:34:55.821Z,97041.88
2022-12-25T10:37:25.781Z,97045.59
2022-12-25T10:39:55.847Z,97036.30
2022-12-25T10:42:43.058Z,97041.91
2022-12-25T10:45:13.408Z,97041.41
2022-12-25T10:47:43.524Z,97038.25
2022-12-25T10:50:21.053Z,97036.30
2022-12-25T10:53:07.625Z,97041.37
2022-12-25T10:55:37.756Z,97038.73
2022-12-25T10:58:08.094Z,97040.92
2022-12-25T11:00:39.140Z,97038.73
2022-12-25T11:03:24.678Z,97033.48
2022-12-25T11:05:55.338Z,97025.28
2022-12-25T11:08:28.337Z,97023.45
2022-12-25T11:11:06.995Z,97023.65
2022-12-25T11:13:40.913Z,97017.93
2022-12-25T11:16:15.509Z,97019.16
2022-12-25T11:18:51.438Z,97020.70
2022-12-25T11:21:25.637Z,97026.11
2022-12-25T11:24:05.128Z,97026.24
2022-12-25T11:26:49.892Z,97033.22
2022-12-25T11:29:41.502Z,97033.28
2022-12-25T11:32:21.510Z,97034.94
2022-12-25T11:34:56.423Z,97025.59
2022-12-25T11:38:01.437Z,97035.79
2022-12-25T11:40:47.928Z,97038.70
2022-12-25T11:43:22.756Z,97038.98
2022-12-25T11:46:01.379Z,97038.61
2022-12-25T11:48:56.589Z,97034.23
2022-12-25T11:51:34.069Z,97038.38
2022-12-25T11:54:13.084Z,97040.98
2022-12-25T11:56:43.971Z,97045.73
2022-12-25T11:59:39.376Z,97049.08
2022-12-25T12:02:24.311Z,97051.45
2022-12-25T12:05:10.056Z,97053.57
2022-12-25T12:07:54.202Z,97046.72
2022-12-25T12:10:51.524Z,97042.59
2022-12-25T12:13:44.985Z,97041.71
2022-12-25T12:16:15.202Z,97047.45
2022-12-25T12:18:50.360Z,97050.42
2022-12-25T12:21:29.623Z,97050.31
2022-12-25T12:24:21.080Z,97059.52
2022-12-25T12:27:14.268Z,97065.62
2022-12-25T12:29:52.179Z,97069.28
2022-12-25T12:32:42.244Z,97072.76
2022-12-25T12:35:28.817Z,97072.63
2022-12-25T12:38:07.076Z,97077.89
2022-12-25T12:40:44.549Z,97081.73
2022-12-25T12:43:25.039Z,97078.55
2022-12-25T12:46:08.035Z,97072.42
2022-12-25T12:48:44.537Z,97067.69
2022-12-25T12:51:28.610Z,97070.12
2022-12-25T12:54:24.841Z,97074.16
2022-12-25T12:57:23.396Z,97072.38
2022-12-25T12:59:54.503Z,97082.83
2022-12-25T13:02:50.719Z,97082.58
2022-12-25T13:05:50.529Z,97081.55
2022-12-25T13:08:52.525Z,97084.41
2022-12-25T13:11:31.858Z,97080.53
2022-12-25T13:14:03.596Z,97085.13
2022-12-25T13:16:41.505Z,97086.20
2022-12-25T13:19:28.184Z,97083.98
2022-12-25T13:22:04.108Z,97083.20
2022-12-25T13:24:37.306Z,97090.13
2022-12-25T13:27:28.134Z,97088.60
2022-12-25T13:29:59.121Z,97089.93
2022-12-25T13:32:34.014Z,97106.05
2022-12-25T13:35:05.160Z,97109.71
2022-12-25T13:37:35.621Z,97104.23
2022-12-25T13:40:19.800Z,97096.58
2022-12-25T13:42:52.026Z,97098.92
2022-12-25T13:45:24.243Z,97100.73
2022-12-25T13:47:56.063Z,97103.20
2022-12-25T13:50:33.876Z,97108.45
2022-12-25T13:53:16.890Z,97104.45
2022-12-25T13:55:52.968Z,97104.71
2022-12-25T13:58:31.139Z,97108.66
2022-12-25T14:01:02.036Z,97119.85
2022-12-25T14:03:37.042Z,97116.02
2022-12-25T14:06:21.861Z,97120.12
2022-12-25T14:08:53.722Z,97117.60
2022-12-25T14:11:25.816Z,97119.90
2022-12-25T14:14:00.655Z,97123.06
2022-12-25T14:16:31.219Z,97125.73
2022-12-25T14:19:03.958Z,97134.08
2022-12-25T14:21:50.620Z,97134.91
2022-12-25T14:24:22.717Z,97132.44
2022-12-25T14:27:03.552Z,97140.57
2022-12-25T14:29:43.727Z,97141.14
2022-12-25T14:32:20.987Z,97143.10
2022-12-25T14:34:59.872Z,97146.14
2022-12-25T14:37:33.231Z,97148.15
2022-12-25T14:40:24.407Z,97149.94
2022-12-25T14:43:06.311Z,97150.38
2022-12-25T14:45:41.230Z,97156.73
2022-12-25T14:48:25.465Z,97162.70
2022-12-25T14:51:06.352Z,97164.16
2022-12-25T14:53:48.776Z,97169.05
2022-12-25T14:56:21.604Z,97170.39
2022-12-25T14:58:55.430Z,97169.02
2022-12-25T15:01:37.438Z,97170.09
2022-12-25T15:04:12.504Z,97177.88
2022-12-25T15:07:00.799Z,97172.64
2022-12-25T15:09:31.003Z,97181.86
2022-12-25T15:12:01.028Z,97188.80
2022-12-25T15:14:31.996Z,97197.48
2022-12-25T15:17:02.302Z,97202.66
2022-12-25T15:19:38.283Z,97210.29
2022-12-25T15:22:12.933Z,97213.92
2022-12-25T15:24:43.000Z,97218.76
2022-12-25T15:27:19.230Z,97223.62
2022-12-25T15:32:41.119Z,97230.05
2022-12-25T15:35:19.833Z,97232.73
2022-12-25T15:37:51.280Z,97233.93
2022-12-25T15:40:21.924Z,97236.67
2022-12-25T15:42:56.341Z,97239.48
2022-12-25T15:45:29.585Z,97240.30
2022-12-25T15:48:00.281Z,97245.78
2022-12-25T15:50:30.853Z,97243.33
2022-12-25T15:52:59.957Z,97241.80
2022-12-25T15:55:29.989Z,97241.30
2022-12-25T15:58:00.249Z,97247.96
2022-12-25T16:00:29.497Z,97248.71
2022-12-25T16:02:59.663Z,97257.93
2022-12-25T16:05:29.593Z,97266.04
2022-12-25T16:07:59.627Z,97278.63
2022-12-25T16:10:36.668Z,97278.69
2022-12-25T16:13:09.302Z,97277.21
2022-12-25T16:15:39.851Z,97265.64
2022-12-25T16:18:10.908Z,97259.48
2022-12-25T16:20:41.321Z,97254.65
2022-12-25T16:23:10.868Z,97258.73
2022-12-25T16:25:42.542Z,97255.73
2022-12-25T16:28:12.653Z,97252.91
2022-12-25T16:30:43.270Z,97249.79
2022-12-25T16:33:13.664Z,97247.39
2022-12-25T16:35:44.715Z,97243.70
2022-12-25T16:38:14.877Z,97237.05
2022-12-25T16:40:45.801Z,97240.27
2022-12-25T16:43:21.893Z,97235.47
2022-12-25T16:45:55.143Z,97232.63
2022-12-25T16:48:25.457Z,97230.27
2022-12-25T16:50:55.797Z,97228.91
2022-12-25T16:53:25.878Z,97233.55
2022-12-25T16:56:15.243Z,97233.92
2022-12-25T16:58:47.011Z,97238.24
2022-12-25T17:01:20.792Z,97244.20
2022-12-25T17:03:51.912Z,97255.40
2022-12-25T17:06:25.319Z,97250.83
2022-12-25T17:08:58.809Z,97237.30
2022-12-25T17:11:30.455Z,97219.79
2022-12-25T17:14:03.952Z,97215.76
2022-12-25T17:16:36.073Z,97214.25
2022-12-25T17:19:11.926Z,97212.74
2022-12-25T17:21:42.734Z,97208.84
2022-12-25T17:24:13.314Z,97210.58
2022-12-25T17:26:44.420Z,97211.88
2022-12-25T17:29:21.941Z,97221.30
2022-12-25T17:31:53.743Z,97229.70
2022-12-25T17:34:24.090Z,97245.13
2022-12-25T17:36:55.071Z,97247.90
2022-12-25T17:39:25.680Z,97248.36
2022-12-25T17:41:55.685Z,97256.46
2022-12-25T17:44:26.128Z,97258.33
2022-12-25T17:46:56.092Z,97255.55
2022-12-25T17:49:26.563Z,97255.95
2022-12-25T17:51:56.908Z,97261.41
2022-12-25T17:54:27.491Z,97258.10
2022-12-25T17:56:56.631Z,97252.92
2022-12-25T17:59:30.138Z,97243.05
2022-12-25T18:02:01.091Z,97236.77
2022-12-25T18:04:30.933Z,97235.78
2022-12-25T18:07:01.414Z,97235.74
2022-12-25T18:09:31.619Z,97238.94
2022-12-25T18:12:01.998Z,97236.81
2022-12-25T18:14:32.330Z,97237.93
2022-12-25T18:17:02.596Z,97235.08
2022-12-25T18:19:33.310Z,97231.59
2022-12-25T18:22:03.390Z,97230.90
2022-12-25T18:24:33.659Z,97233.82
2022-12-25T18:27:06.730Z,97237.04
2022-12-25T18:29:36.941Z,97242.58
2022-12-25T18:32:07.213Z,97240.94
2022-12-25T18:34:37.918Z,97243.05
2022-12-25T18:37:08.082Z,97246.31
2022-12-25T18:39:40.566Z,97249.41
2022-12-25T18:42:33.118Z,97248.64
2022-12-25T18:45:03.681Z,97252.44
2022-12-25T18:47:35.761Z,97253.42
2022-12-25T18:50:07.583Z,97254.79
2022-12-25T18:52:49.766Z,97259.15
2022-12-25T18:55:22.074Z,97264.45
2022-12-25T18:57:52.490Z,97268.42
2022-12-25T19:00:22.902Z,97271.51
2022-12-25T19:02:58.761Z,97264.10
2022-12-25T19:05:29.179Z,97261.17
2022-12-25T19:07:59.150Z,97264.76
2022-12-25T19:10:31.485Z,97269.73
2022-12-25T19:13:01.923Z,97272.28
2022-12-25T19:15:30.700Z,97276.48
2022-12-25T19:18:01.145Z,97272.65
2022-12-25T19:20:31.454Z,97267.64
2022-12-25T19:23:01.809Z,97264.25
2022-12-25T19:25:31.575Z,97266.70
2022-12-25T19:28:01.901Z,97266.81
2022-12-25T19:30:31.943Z,97262.58
2022-12-25T19:33:01.858Z,97261.54
2022-12-25T19:35:31.030Z,97261.30
2022-12-25T19:38:01.400Z,97258.13
2022-12-25T19:40:39.243Z,97252.69
2022-12-25T19:43:12.882Z,97251.70
2022-12-25T19:45:42.492Z,97249.10
2022-12-25T19:48:12.950Z,97249.40
2022-12-25T19:50:44.311Z,97253.13
2022-12-25T19:53:17.248Z,97250.58
2022-12-25T19:55:55.223Z,97251.16
2022-12-25T19:58:36.524Z,97253.10
2022-12-25T20:01:11.390Z,97250.11
2022-12-25T20:03:50.450Z,97249.50
2022-12-25T20:06:26.739Z,97250.73
2022-12-25T20:09:00.051Z,97234.89
2022-12-25T20:11:32.227Z,97232.34
2022-12-25T20:14:04.054Z,97236.02
2022-12-25T20:16:41.148Z,97247.02
2022-12-25T20:19:15.449Z,97257.17
2022-12-25T20:21:46.282Z,97258.29
2022-12-25T20:24:16.697Z,97263.96
2022-12-25T20:26:48.272Z,97265.65
2022-12-25T20:29:19.272Z,97268.68
2022-12-25T20:31:49.464Z,97269.02
2022-12-25T20:57:42.975Z,97295.89
2022-12-25T21:05:56.590Z,97294.80
2022-12-25T21:08:27.453Z,97294.23
2022-12-25T21:11:01.405Z,97295.39
2022-12-25T21:13:33.593Z,97294.77
2022-12-25T21:16:07.980Z,97308.40
2022-12-25T21:18:41.253Z,97311.66
2022-12-25T21:21:14.220Z,97313.41
2022-12-25T21:23:46.125Z,97313.73
2022-12-25T21:26:27.106Z,97315.16
2022-12-25T21:29:00.650Z,97318.58
2022-12-25T21:31:55.810Z,97325.45
2022-12-25T21:34:30.951Z,97328.59
2022-12-25T21:37:01.197Z,97334.19
2022-12-25T21:39:31.680Z,97326.45
2022-12-25T21:42:04.826Z,97331.14
2022-12-25T21:44:35.290Z,97323.98
2022-12-25T21:47:05.489Z,97322.48
2022-12-25T21:49:54.953Z,97321.12
2022-12-25T21:52:24.989Z,97320.41
2022-12-25T21:54:54.209Z,97318.08
2022-12-25T21:57:24.251Z,97320.35
2022-12-25T21:59:56.250Z,97317.89
2022-12-25T22:02:26.462Z,97318.66
2022-12-25T22:04:58.974Z,97313.88
2022-12-25T22:07:29.585Z,97304.95
2022-12-25T22:09:59.995Z,97309.12
2022-12-25T22:12:49.978Z,97302.73
2022-12-25T22:15:20.184Z,97293.73
2022-12-25T22:18:09.748Z,97295.61
2022-12-25T22:20:39.980Z,97295.46
2022-12-25T22:23:10.262Z,97295.13
2022-12-25T22:25:40.588Z,97297.03
2022-12-25T22:28:10.913Z,97302.67
2022-12-25T22:30:44.694Z,97307.56
2022-12-25T22:33:16.899Z,97307.59
2022-12-25T22:35:47.868Z,97313.28
2022-12-25T22:38:19.630Z,97309.17
2022-12-25T22:40:50.132Z,97306.36
2022-12-25T22:43:21.312Z,97305.39
2022-12-25T22:45:52.626Z,97306.13
2022-12-25T22:48:23.607Z,97300.97
2022-12-25T22:50:54.548Z,97291.01
2022-12-25T22:53:25.635Z,97289.77
2022-12-25T22:55:56.605Z,97289.70
2022-12-25T22:58:27.081Z,97289.05
2022-12-25T23:00:57.904Z,97287.08
2022-12-25T23:03:29.370Z,97285.96
2022-12-25T23:06:01.484Z,97287.22
2022-12-25T23:08:32.534Z,97286.77
2022-12-25T23:11:04.492Z,97290.73
2022-12-25T23:13:53.572Z,97285.94
2022-12-25T23:16:26.134Z,97290.08
2022-12-25T23:19:17.408Z,97291.83
2022-12-25T23:22:07.406Z,97296.05
2022-12-25T23:24:58.231Z,97297.08
2022-12-25T23:27:29.715Z,97300.36
2022-12-25T23:30:00.449Z,97309.70
2022-12-25T23:32:31.156Z,97313.53
2022-12-25T23:35:02.335Z,97314.99
2022-12-25T23:37:32.931Z,97320.09
2022-12-25T23:40:04.749Z,97322.48
2022-12-25T23:42:35.584Z,97320.96
2022-12-25T23:45:06.781Z,97315.62
2022-12-25T23:47:37.866Z,97314.10
2022-12-25T23:50:09.465Z,97310.69
2022-12-25T23:52:40.347Z,97309.03
2022-12-25T23:55:11.037Z,97300.78
2022-12-25T23:57:41.077Z,97295.99
